Time;durP1;ratioP1;P1;durP2;ratioP2;P2;SDS_P1;SDS_P2;PMS_P1;PMS_P2;Temp;Humidity;BMP_temperature;BMP_pressure;BME280_temperature;BME280_humidity;BME280_pressure;Samples;Min_cycle;Max_cycle;Signal;HPM_P1;HPM_P2
2021/07/10 00:04:57;;;;;;;;;;;;;;;;;;10259663;28;20055;-64
2021/07/10 00:09:54;;;;;;;;;;;;;;;;;;10256364;28;19914;-65
2021/07/10 00:14:51;;;;;;;;;;;;;;;;;;10264150;28;19914;-65
2021/07/10 00:19:52;;;;;;;;;;;;;;;;;;10252895;28;19924;-65
2021/07/10 00:24:49;;;;;;;;;;;;;;;;;;10244713;28;19925;-65
2021/07/10 00:29:47;;;;;;;;;;;;;;;;;;10257615;28;19917;-67
2021/07/10 00:34:44;;;;;;;;;;;;;;;;;;10263558;28;20777;-67
2021/07/10 00:39:41;;;;;;;;;;;;;;;;;;10252858;28;19924;-67
2021/07/10 00:44:38;;;;;;;;;;;;;;;;;;10248590;28;19917;-65
2021/07/10 00:49:36;;;;;;;;;;;;;;;;;;10255996;28;20287;-67
2021/07/10 00:54:33;;;;;;;;;;;;;;;;;;10251469;28;20250;-68
2021/07/10 00:59:30;;;;;;;;;;;;;;;;;;10249587;28;20016;-66
2021/07/10 01:04:27;;;;;;;;;;;;;;;;;;10250469;28;20012;-66
2021/07/10 01:09:25;;;;;;;;;;;;;;;;;;10252829;28;19921;-66
2021/07/10 01:14:22;;;;;;;;;;;;;;;;;;10235284;28;19921;-65
2021/07/10 01:19:19;;;;;;;;;;;;;;;;;;10251727;28;19913;-67
2021/07/10 01:24:16;;;;;;;;;;;;;;;;;;10245594;28;19913;-67
2021/07/10 01:29:14;;;;;;;;;;;;;;;;;;10247744;28;19996;-66
2021/07/10 01:34:11;;;;;;;;;;;;;;;;;;10251953;28;19914;-65
2021/07/10 01:39:08;;;;;;;;;;;;;;;;;;10239544;28;19926;-67
2021/07/10 01:44:06;;;;;;;;;;;;;;;;;;10245450;28;19917;-66
2021/07/10 01:49:03;;;;;;;;;;;;;;;;;;10232385;28;19925;-66
2021/07/10 01:54:00;;;;;;;;;;;;;;;;;;10249291;28;20454;-66
2021/07/10 01:58:57;;;;;;;;;;;;;;;;;;10252423;28;19917;-65
2021/07/10 02:03:55;;;;;;;;;;;;;;;;;;10250533;28;20001;-66
2021/07/10 02:08:52;;;;;;;;;;;;;;;;;;10241206;28;19921;-65
2021/07/10 02:13:49;;;;;;;;;;;;;;;;;;10246549;28;19914;-65
2021/07/10 02:18:46;;;;;;;;;;;;;;;;;;10249772;28;19917;-65
2021/07/10 02:23:44;;;;;;;;;;;;;;;;;;10259373;28;19992;-65
2021/07/10 02:28:41;;;;;;;;;;;;;;;;;;10257019;28;20355;-67
2021/07/10 02:33:38;;;;;;;;;;;;;;;;;;10262002;28;19921;-66
2021/07/10 02:38:35;;;;;;;;;;;;;;;;;;10247895;28;19918;-66
2021/07/10 02:43:33;;;;;;;;;;;;;;;;;;10251806;28;20346;-66
2021/07/10 02:48:30;;;;;;;;;;;;;;;;;;10259835;28;19913;-65
2021/07/10 02:53:27;;;;;;;;;;;;;;;;;;10260714;28;19913;-65
2021/07/10 02:58:25;;;;;;;;;;;;;;;;;;10252969;28;19987;-66
2021/07/10 03:03:22;;;;;;;;;;;;;;;;;;10249640;28;20317;-66
2021/07/10 03:08:21;;;;;;;;;;;;;;;;;;10250046;28;19920;-67
2021/07/10 03:13:18;;;;;;;;;;;;;;;;;;10258474;28;19992;-66
2021/07/10 03:18:15;;;;;;;;;;;;;;;;;;10243687;28;20016;-66
2021/07/10 03:23:13;;;;;;;;;;;;;;;;;;10261077;28;19945;-66
2021/07/10 03:28:10;;;;;;;;;;;;;;;;;;10263078;28;19913;-64
2021/07/10 03:33:07;;;;;;;;;;;;;;;;;;10260920;28;20000;-64
2021/07/10 03:38:04;;;;;;;;;;;;;;;;;;10258578;28;19921;-66
2021/07/10 03:43:04;;;;;;;;;;;;;;;;;;10262247;28;19914;-65
2021/07/10 03:48:01;;;;;;;;;;;;;;;;;;10260241;28;19921;-67
2021/07/10 03:52:58;;;;;;;;;;;;;;;;;;10259746;28;19967;-66
2021/07/10 03:57:55;;;;;;;;;;;;;;;;;;10259945;28;19917;-66
2021/07/10 04:02:53;;;;;;;;;;;;;;;;;;10260294;28;20007;-65
2021/07/10 04:07:50;;;;;;;;;;;;;;;;;;10246445;28;19979;-67
2021/07/10 04:12:47;;;;;;;;;;;;;;;;;;10259533;28;19913;-67
2021/07/10 04:17:44;;;;;;;;;;;;;;;;;;10259493;28;19921;-66
2021/07/10 04:22:42;;;;;;;;;;;;;;;;;;10258720;28;19921;-65
2021/07/10 04:27:39;;;;;;;;;;;;;;;;;;10259538;28;20391;-67
2021/07/10 04:32:36;;;;;;;;;;;;;;;;;;10244470;28;19924;-67
2021/07/10 04:37:34;;;;;;;;;;;;;;;;;;10258214;28;20499;-67
2021/07/10 04:42:31;;;;;;;;;;;;;;;;;;10258709;28;19973;-66
2021/07/10 04:47:28;;;;;;;;;;;;;;;;;;10268347;28;19928;-68
2021/07/10 04:52:25;;;;;;;;;;;;;;;;;;10272553;28;19913;-66
2021/07/10 04:57:23;;;;;;;;;;;;;;;;;;10260335;28;19996;-67
2021/07/10 05:02:20;;;;;;;;;;;;;;;;;;10260771;28;20221;-67
2021/07/10 05:07:17;;;;;;;;;;;;;;;;;;10257595;28;19913;-66
2021/07/10 05:12:16;;;;;;;;;;;;;;;;;;10259487;28;19913;-65
2021/07/10 05:17:13;;;;;;;;;;;;;;;;;;10258126;28;19955;-65
2021/07/10 05:22:10;;;;;;;;;;;;;;;;;;10263622;28;20398;-66
2021/07/10 05:27:08;;;;;;;;;;;;;;;;;;10259941;28;20011;-66
2021/07/10 05:32:05;;;;;;;;;;;;;;;;;;10261512;28;20240;-66
2021/07/10 05:37:02;;;;;;;;;;;;;;;;;;10254138;28;20162;-64
2021/07/10 05:41:59;;;;;;;;;;;;;;;;;;10233203;28;19913;-68
2021/07/10 05:46:57;;;;;;;;;;;;;;;;;;10247606;28;20371;-66
2021/07/10 05:51:54;;;;;;;;;;;;;;;;;;10243426;28;19939;-67
2021/07/10 05:56:52;;;;;;;;;;;;;;;;;;10257065;28;19985;-66
2021/07/10 06:01:49;;;;;;;;;;;;;;;;;;10251322;28;20000;-66
2021/07/10 06:06:46;;;;;;;;;;;;;;;;;;10248506;28;19914;-67
2021/07/10 06:11:44;;;;;;;;;;;;;;;;;;10252273;28;19932;-65
2021/07/10 06:16:41;;;;;;;;;;;;;;;;;;10250594;28;19929;-65
2021/07/10 06:21:38;;;;;;;;;;;;;;;;;;10255812;28;20012;-65
2021/07/10 06:26:35;;;;;;;;;;;;;;;;;;10256436;28;19917;-70
2021/07/10 06:31:33;;;;;;;;;;;;;;;;;;10253306;28;20367;-65
2021/07/10 06:36:30;;;;;;;;;;;;;;;;;;10249916;28;20008;-64
2021/07/10 06:41:27;;;;;;;;;;;;;;;;;;10247283;28;20535;-64
2021/07/10 06:46:24;;;;;;;;;;;;;;;;;;10260026;28;19909;-66
2021/07/10 06:51:22;;;;;;;;;;;;;;;;;;10247577;28;20024;-66
2021/07/10 06:56:19;;;;;;;;;;;;;;;;;;10247712;28;19972;-66
2021/07/10 07:01:16;;;;;;;;;;;;;;;;;;10250218;28;19911;-67
2021/07/10 07:06:15;;;;;;;;;;;;;;;;;;10249532;28;20407;-65
2021/07/10 07:11:12;;;;;;;;;;;;;;;;;;10258204;28;19943;-66
2021/07/10 07:16:09;;;;;;;;;;;;;;;;;;10259629;28;20564;-64
2021/07/10 07:21:06;;;;;;;;;;;;;;;;;;10253558;28;20004;-65
2021/07/10 07:26:04;;;;;;;;;;;;;;;;;;10252545;28;19928;-66
2021/07/10 07:31:01;;;;;;;;;;;;;;;;;;10243296;28;20212;-64
2021/07/10 07:35:58;;;;;;;;;;;;;;;;;;10246576;28;20279;-65
2021/07/10 07:40:55;;;;;;;;;;;;;;;;;;10243405;28;19979;-68
2021/07/10 07:45:53;;;;;;;;;;;;;;;;;;10255327;28;19913;-65
2021/07/10 07:50:50;;;;;;;;;;;;;;;;;;10249246;28;20298;-66
2021/07/10 07:55:47;;;;;;;;;;;;;;;;;;10250925;28;19914;-66
2021/07/10 08:00:44;;;;;;;;;;;;;;;;;;10242584;28;19985;-65
2021/07/10 08:05:42;;;;;;;;;;;;;;;;;;10255549;28;19936;-66
2021/07/10 08:10:39;;;;;;;;;;;;;;;;;;10257117;28;19917;-66
2021/07/10 08:15:36;;;;;;;;;;;;;;;;;;10239130;28;20011;-70
2021/07/10 08:20:33;;;;;;;;;;;;;;;;;;10241261;28;19921;-65
2021/07/10 08:25:35;;;;;;;;;;;;;;;;;;10253333;28;19950;-69
2021/07/10 08:30:37;;;;;;;;;;;;;;;;;;10240854;28;19920;-66
2021/07/10 08:35:34;;;;;;;;;;;;;;;;;;10247688;28;19921;-65
2021/07/10 08:40:31;;;;;;;;;;;;;;;;;;10245368;28;19941;-65
2021/07/10 08:45:28;;;;;;;;;;;;;;;;;;10261262;28;19968;-63
2021/07/10 08:50:26;;;;;;;;;;;;;;;;;;10253222;28;19920;-68
2021/07/10 08:55:23;;;;;;;;;;;;;;;;;;10258917;28;19925;-63
2021/07/10 09:00:20;;;;;;;;;;;;;;;;;;10239704;28;19917;-64
2021/07/10 09:05:18;;;;;;;;;;;;;;;;;;10250439;28;19924;-65
2021/07/10 09:10:15;;;;;;;;;;;;;;;;;;10255605;28;20324;-63
2021/07/10 09:15:12;;;;;;;;;;;;;;;;;;10233997;28;19914;-64
2021/07/10 09:20:10;;;;;;;;;;;;;;;;;;10258581;28;20379;-70
2021/07/10 09:25:11;;;;;;;;;;;;;;;;;;10247294;28;20055;-66
2021/07/10 09:30:08;;;;;;;;;;;;;;;;;;10254375;28;20006;-64
2021/07/10 09:35:09;;;;;;;;;;;;;;;;;;10244090;28;19913;-65
2021/07/10 09:40:06;;;;;;;;;;;;;;;;;;10257692;28;20267;-69
2021/07/10 09:45:04;;;;;;;;;;;;;;;;;;10257708;28;19913;-64
2021/07/10 09:50:01;;;;;;;;;;;;;;;;;;10255476;28;19917;-66
2021/07/10 09:54:58;;;;;;;;;;;;;;;;;;10252034;28;19958;-64
2021/07/10 09:59:55;;;;;;;;;;;;;;;;;;10249721;28;20326;-66
2021/07/10 10:04:53;;;;;;;;;;;;;;;;;;10252600;28;19921;-63
2021/07/10 10:09:50;;;;;;;;;;;;;;;;;;10249438;28;19988;-63
2021/07/10 10:14:47;;;;;;;;;;;;;;;;;;10248564;28;20710;-62
2021/07/10 10:19:45;;;;;;;;;;;;;;;;;;10246454;28;19928;-62
2021/07/10 10:24:43;;;;;;;;;;;;;;;;;;10242195;28;19976;-61
2021/07/10 10:29:40;;;;;;;;;;;;;;;;;;10249691;28;20000;-63
2021/07/10 10:34:39;;;;;;;;;;;;;;;;;;10237041;28;20004;-62
2021/07/10 10:39:36;;;;;;;;;;;;;;;;;;10254540;28;19925;-62
2021/07/10 10:44:34;;;;;;;;;;;;;;;;;;10244905;28;19920;-62
2021/07/10 10:49:31;;;;;;;;;;;;;;;;;;10251877;28;19966;-62
2021/07/10 10:54:28;;;;;;;;;;;;;;;;;;10229587;28;20357;-62
2021/07/10 10:59:26;;;;;;;;;;;;;;;;;;10252657;28;19917;-62
2021/07/10 11:04:23;;;;;;;;;;;;;;;;;;10252700;28;20367;-63
2021/07/10 11:09:20;;;;;;;;;;;;;;;;;;10247653;28;19913;-64
2021/07/10 11:14:18;;;;;;;;;;;;;;;;;;10252743;28;19920;-64
2021/07/10 11:19:15;;;;;;;;;;;;;;;;;;10245626;28;20012;-64
2021/07/10 11:24:12;;;;;;;;;;;;;;;;;;10241965;28;20036;-63
2021/07/10 11:29:10;;;;;;;;;;;;;;;;;;10233294;28;20338;-63
2021/07/10 11:34:07;;;;;;;;;;;;;;;;;;10220272;28;19919;-63
2021/07/10 11:39:04;;;;;;;;;;;;;;;;;;10238266;28;19924;-64
2021/07/10 11:44:02;;;;;;;;;;;;;;;;;;10214787;28;20000;-64
2021/07/10 11:48:59;;;;;;;;;;;;;;;;;;10230800;28;19922;-63
2021/07/10 11:53:56;;;;;;;;;;;;;;;;;;10240991;28;19913;-65
2021/07/10 11:58:55;;;;;;;;;;;;;;;;;;10235964;28;19928;-63
2021/07/10 12:03:52;;;;;;;;;;;;;;;;;;10247785;28;19949;-62
2021/07/10 12:08:49;;;;;;;;;;;;;;;;;;10247537;28;20338;-62
2021/07/10 12:13:46;;;;;;;;;;;;;;;;;;10243371;28;19972;-62
2021/07/10 12:18:44;;;;;;;;;;;;;;;;;;10241497;28;19921;-61
2021/07/10 12:23:41;;;;;;;;;;;;;;;;;;10253790;28;20441;-64
2021/07/10 12:28:38;;;;;;;;;;;;;;;;;;10255128;28;19921;-62
2021/07/10 12:33:36;;;;;;;;;;;;;;;;;;10256017;28;19917;-62
2021/07/10 12:38:33;;;;;;;;;;;;;;;;;;10240035;28;19922;-61
2021/07/10 12:43:30;;;;;;;;;;;;;;;;;;10238526;28;20434;-62
2021/07/10 12:48:27;;;;;;;;;;;;;;;;;;10239734;28;19928;-62
2021/07/10 12:53:31;;;;;;;;;;;;;;;;;;10243429;28;19967;-63
2021/07/10 12:58:28;;;;;;;;;;;;;;;;;;10242300;28;19948;-62
2021/07/10 13:03:26;;;;;;;;;;;;;;;;;;10242169;28;20279;-63
2021/07/10 13:08:23;;;;;;;;;;;;;;;;;;10251539;28;19967;-63
2021/07/10 13:13:22;;;;;;;;;;;;;;;;;;10247615;28;19913;-62
2021/07/10 13:18:20;;;;;;;;;;;;;;;;;;10249104;28;20331;-64
2021/07/10 13:23:17;;;;;;;;;;;;;;;;;;10246898;28;20613;-63
2021/07/10 13:28:14;;;;;;;;;;;;;;;;;;10257047;28;19929;-64
2021/07/10 13:33:11;;;;;;;;;;;;;;;;;;10244403;28;19914;-62
2021/07/10 13:38:09;;;;;;;;;;;;;;;;;;10255624;28;19917;-63
2021/07/10 13:43:08;;;;;;;;;;;;;;;;;;10230580;28;19909;-64
2021/07/10 13:48:05;;;;;;;;;;;;;;;;;;10237860;28;19916;-64
2021/07/10 13:53:03;;;;;;;;;;;;;;;;;;10252141;28;19910;-63
2021/07/10 13:58:00;;;;;;;;;;;;;;;;;;10252543;28;20047;-63
2021/07/10 14:02:59;;;;;;;;;;;;;;;;;;10233678;28;20294;-64
2021/07/10 14:07:57;;;;;;;;;;;;;;;;;;10243726;28;20259;-64
2021/07/10 14:12:54;;;;;;;;;;;;;;;;;;10240428;28;19951;-62
2021/07/10 14:17:53;;;;;;;;;;;;;;;;;;10242033;28;19923;-63
2021/07/10 14:22:50;;;;;;;;;;;;;;;;;;10268793;28;19917;-64
2021/07/10 14:27:47;;;;;;;;;;;;;;;;;;10223225;28;20000;-63
2021/07/10 14:32:44;;;;;;;;;;;;;;;;;;10242386;28;19976;-63
2021/07/10 14:37:42;;;;;;;;;;;;;;;;;;10246899;28;20344;-64
2021/07/10 14:42:39;;;;;;;;;;;;;;;;;;10251763;28;19921;-64
2021/07/10 14:47:36;;;;;;;;;;;;;;;;;;10247361;28;19928;-64
2021/07/10 14:52:33;;;;;;;;;;;;;;;;;;10243277;28;20395;-64
2021/07/10 14:57:31;;;;;;;;;;;;;;;;;;10229225;28;19918;-64
2021/07/10 15:02:28;;;;;;;;;;;;;;;;;;10248080;28;19917;-64
2021/07/10 15:07:25;;;;;;;;;;;;;;;;;;10245045;28;20260;-63
2021/07/10 15:12:23;;;;;;;;;;;;;;;;;;10221500;28;21331;-64
2021/07/10 15:17:20;;;;;;;;;;;;;;;;;;10228408;28;20046;-64
2021/07/10 15:22:17;;;;;;;;;;;;;;;;;;10239830;28;19917;-63
2021/07/10 15:27:14;;;;;;;;;;;;;;;;;;10238808;28;19917;-63
2021/07/10 15:32:12;;;;;;;;;;;;;;;;;;10231709;28;19913;-64
2021/07/10 15:37:09;;;;;;;;;;;;;;;;;;10236517;28;19917;-63
2021/07/10 15:42:06;;;;;;;;;;;;;;;;;;10254572;28;19921;-63
2021/07/10 15:47:04;;;;;;;;;;;;;;;;;;10241269;28;19921;-62
2021/07/10 15:52:01;;;;;;;;;;;;;;;;;;10236001;28;19943;-63
2021/07/10 15:56:58;;;;;;;;;;;;;;;;;;10245034;28;20028;-63
2021/07/10 16:01:57;;;;;;;;;;;;;;;;;;10242727;28;20433;-64
2021/07/10 16:06:54;;;;;;;;;;;;;;;;;;10232436;28;19976;-64
2021/07/10 16:11:51;;;;;;;;;;;;;;;;;;10242266;28;20004;-64
2021/07/10 16:16:49;;;;;;;;;;;;;;;;;;10235453;28;19921;-64
2021/07/10 16:21:46;;;;;;;;;;;;;;;;;;10235027;28;20391;-63
2021/07/10 16:26:45;;;;;;;;;;;;;;;;;;10228890;28;19927;-64
2021/07/10 16:31:42;;;;;;;;;;;;;;;;;;10240105;28;19960;-63
2021/07/10 16:36:39;;;;;;;;;;;;;;;;;;10239828;28;20401;-64
2021/07/10 16:41:37;;;;;;;;;;;;;;;;;;10247921;28;19914;-63
2021/07/10 16:46:34;;;;;;;;;;;;;;;;;;10213925;28;19913;-64
2021/07/10 16:51:31;;;;;;;;;;;;;;;;;;10237062;28;19913;-64
2021/07/10 16:56:29;;;;;;;;;;;;;;;;;;10243393;28;19913;-64
2021/07/10 17:01:26;;;;;;;;;;;;;;;;;;10244346;28;19922;-64
2021/07/10 17:06:24;;;;;;;;;;;;;;;;;;10243254;28;19917;-63
2021/07/10 17:11:21;;;;;;;;;;;;;;;;;;10246897;28;19923;-63
2021/07/10 17:16:18;;;;;;;;;;;;;;;;;;10251276;28;20016;-63
2021/07/10 17:21:20;;;;;;;;;;;;;;;;;;10240307;28;20379;-63
2021/07/10 17:26:18;;;;;;;;;;;;;;;;;;10236880;28;20346;-64
2021/07/10 17:31:15;;;;;;;;;;;;;;;;;;10253728;28;19928;-63
2021/07/10 17:36:12;;;;;;;;;;;;;;;;;;10242529;28;19913;-66
2021/07/10 17:41:10;;;;;;;;;;;;;;;;;;10256399;28;19918;-65
2021/07/10 17:46:07;;;;;;;;;;;;;;;;;;10249845;28;19918;-66
2021/07/10 17:51:04;;;;;;;;;;;;;;;;;;10248830;28;19918;-66
2021/07/10 17:56:01;;;;;;;;;;;;;;;;;;10247394;28;19995;-66
2021/07/10 18:00:59;;;;;;;;;;;;;;;;;;10246223;28;19917;-66
2021/07/10 18:05:56;;;;;;;;;;;;;;;;;;10250627;28;20008;-64
2021/07/10 18:10:53;;;;;;;;;;;;;;;;;;10243233;28;20351;-65
2021/07/10 18:15:50;;;;;;;;;;;;;;;;;;10241796;28;19914;-64
2021/07/10 18:20:48;;;;;;;;;;;;;;;;;;10249800;28;19928;-64
2021/07/10 18:25:46;;;;;;;;;;;;;;;;;;10255661;28;19917;-64
2021/07/10 18:30:44;;;;;;;;;;;;;;;;;;10246531;28;19917;-63
2021/07/10 18:35:41;;;;;;;;;;;;;;;;;;10237991;28;20290;-64
2021/07/10 18:40:38;;;;;;;;;;;;;;;;;;10251967;28;19972;-62
2021/07/10 18:45:36;;;;;;;;;;;;;;;;;;10248655;28;19920;-63
2021/07/10 18:50:33;;;;;;;;;;;;;;;;;;10254728;28;20430;-63
2021/07/10 18:55:30;;;;;;;;;;;;;;;;;;10254431;28;19914;-62
2021/07/10 19:00:28;;;;;;;;;;;;;;;;;;10248499;28;19972;-63
2021/07/10 19:05:25;;;;;;;;;;;;;;;;;;10248696;28;19918;-63
2021/07/10 19:10:22;;;;;;;;;;;;;;;;;;10245203;28;19917;-62
2021/07/10 19:15:20;;;;;;;;;;;;;;;;;;10246397;28;19949;-64
2021/07/10 19:20:17;;;;;;;;;;;;;;;;;;10237639;28;19925;-62
2021/07/10 19:25:14;;;;;;;;;;;;;;;;;;10248213;28;20023;-62
2021/07/10 19:30:12;;;;;;;;;;;;;;;;;;10246864;28;19914;-64
2021/07/10 19:35:09;;;;;;;;;;;;;;;;;;10246378;28;19913;-63
2021/07/10 19:40:06;;;;;;;;;;;;;;;;;;10238304;28;20314;-63
2021/07/10 19:45:04;;;;;;;;;;;;;;;;;;10249798;28;20433;-62
2021/07/10 19:50:01;;;;;;;;;;;;;;;;;;10245579;28;19913;-62
2021/07/10 19:54:58;;;;;;;;;;;;;;;;;;10253035;28;19952;-61
2021/07/10 19:59:57;;;;;;;;;;;;;;;;;;10249331;28;19917;-61
2021/07/10 20:04:54;;;;;;;;;;;;;;;;;;10236414;28;19923;-64
2021/07/10 20:09:52;;;;;;;;;;;;;;;;;;10234945;28;19913;-63
2021/07/10 20:14:49;;;;;;;;;;;;;;;;;;10243505;28;19918;-63
2021/07/10 20:19:47;;;;;;;;;;;;;;;;;;10237154;28;19956;-63
2021/07/10 20:24:44;;;;;;;;;;;;;;;;;;10236067;28;20288;-64
2021/07/10 20:29:41;;;;;;;;;;;;;;;;;;10246832;28;19913;-63
2021/07/10 20:34:39;;;;;;;;;;;;;;;;;;10234805;28;20551;-61
2021/07/10 20:39:37;;;;;;;;;;;;;;;;;;10249116;28;20294;-61
2021/07/10 20:44:34;;;;;;;;;;;;;;;;;;10237308;28;19925;-65
2021/07/10 20:49:32;;;;;;;;;;;;;;;;;;10245423;28;20757;-65
2021/07/10 20:54:29;;;;;;;;;;;;;;;;;;10247208;28;19917;-65
2021/07/10 20:59:26;;;;;;;;;;;;;;;;;;10248294;28;19918;-63
2021/07/10 21:04:24;;;;;;;;;;;;;;;;;;10251289;28;19913;-65
2021/07/10 21:09:21;;;;;;;;;;;;;;;;;;10249091;28;19936;-63
2021/07/10 21:14:19;;;;;;;;;;;;;;;;;;10208959;28;19921;-64
2021/07/10 21:19:16;;;;;;;;;;;;;;;;;;10243633;28;19921;-65
2021/07/10 21:24:13;;;;;;;;;;;;;;;;;;10232611;28;19921;-63
2021/07/10 21:29:11;;;;;;;;;;;;;;;;;;10236802;28;20368;-63
2021/07/10 21:34:09;;;;;;;;;;;;;;;;;;10237364;28;20429;-65
2021/07/10 21:39:06;;;;;;;;;;;;;;;;;;10241646;28;19921;-64
2021/07/10 21:44:03;;;;;;;;;;;;;;;;;;10228510;28;20244;-65
2021/07/10 21:49:01;;;;;;;;;;;;;;;;;;10236139;28;19920;-65
2021/07/10 21:53:58;;;;;;;;;;;;;;;;;;10240959;28;19917;-65
2021/07/10 21:58:55;;;;;;;;;;;;;;;;;;10249950;28;20275;-64
2021/07/10 22:03:53;;;;;;;;;;;;;;;;;;10242717;28;19905;-61
2021/07/10 22:08:50;;;;;;;;;;;;;;;;;;10235702;28;20401;-62
2021/07/10 22:13:47;;;;;;;;;;;;;;;;;;10231234;28;19915;-65
2021/07/10 22:18:46;;;;;;;;;;;;;;;;;;10234374;28;19931;-65
2021/07/10 22:23:44;;;;;;;;;;;;;;;;;;10243123;28;19921;-63
2021/07/10 22:28:41;;;;;;;;;;;;;;;;;;10246810;28;20282;-63
2021/07/10 22:33:38;;;;;;;;;;;;;;;;;;10240166;28;19922;-62
2021/07/10 22:38:36;;;;;;;;;;;;;;;;;;10240953;28;19917;-64
2021/07/10 22:43:34;;;;;;;;;;;;;;;;;;10239973;28;19917;-67
2021/07/10 22:48:31;;;;;;;;;;;;;;;;;;10226261;28;20009;-66
2021/07/10 22:53:32;;;;;;;;;;;;;;;;;;10234441;28;20536;-62
2021/07/10 22:58:30;;;;;;;;;;;;;;;;;;10232437;28;19917;-65
2021/07/10 23:03:28;;;;;;;;;;;;;;;;;;10237113;28;19967;-65
2021/07/10 23:08:25;;;;;;;;;;;;;;;;;;10225277;28;19932;-65
2021/07/10 23:13:22;;;;;;;;;;;;;;;;;;10250212;28;20378;-65
2021/07/10 23:18:20;;;;;;;;;;;;;;;;;;10257523;28;19940;-65
2021/07/10 23:23:17;;;;;;;;;;;;;;;;;;10245234;28;19918;-63
2021/07/10 23:28:14;;;;;;;;;;;;;;;;;;10245714;28;19921;-64
2021/07/10 23:33:11;;;;;;;;;;;;;;;;;;10235895;28;19924;-64
2021/07/10 23:38:09;;;;;;;;;;;;;;;;;;10229108;28;20230;-64
2021/07/10 23:43:06;;;;;;;;;;;;;;;;;;10246518;28;19937;-63
2021/07/10 23:48:03;;;;;;;;;;;;;;;;;;10232363;28;20295;-62
2021/07/10 23:53:00;;;;;;;;;;;;;;;;;;10254078;28;19920;-62
2021/07/10 23:57:58;;;;;;;;;;;;;;;;;;10241536;28;19917;-62
